Time;durP1;ratioP1;P1;durP2;ratioP2;P2;SDS_P1;SDS_P2;PMS_P1;PMS_P2;Temp;Humidity;BMP_temperature;BMP_pressure;BME280_temperature;BME280_humidity;BME280_pressure;Samples;Min_cycle;Max_cycle;Signal;HPM_P1;HPM_P2
2021/01/15 00:00:53;;;;;;;14.13;12.63;;;;;21.30;101015.00;;;;2065245;28;20276;-68
2021/01/15 00:02:01;;;;;;;15.17;13.57;;;;;21.30;101010.00;;;;2072415;28;20288;-68
2021/01/15 00:03:01;;;;;;;13.70;12.27;;;;;21.30;101014.00;;;;2076350;28;20218;-68
2021/01/15 00:04:02;;;;;;;13.30;11.90;;;;;21.30;101009.00;;;;2076450;28;20218;-67
2021/01/15 00:05:02;;;;;;;13.10;11.80;;;;;21.30;101011.00;;;;2069737;28;20218;-67
2021/01/15 00:06:06;;;;;;;15.93;12.90;;;;;21.30;101016.00;;;;2064354;28;20824;-67
2021/01/15 00:07:06;;;;;;;17.20;12.10;;;;;21.30;101012.00;;;;2062617;28;20221;-67
2021/01/15 00:08:06;;;;;;;14.30;12.17;;;;;21.30;101010.00;;;;2070089;28;20253;-66
2021/01/15 00:09:07;;;;;;;14.50;11.30;;;;;21.30;101016.00;;;;2071404;28;20301;-67
2021/01/15 00:10:08;;;;;;;13.60;12.17;;;;;21.30;101012.00;;;;2070170;28;20222;-67
2021/01/15 00:11:28;;;;;;;14.63;13.13;;;;;21.20;101018.00;;;;2066093;28;20246;-66
2021/01/15 00:12:28;;;;;;;15.45;12.45;;;;;21.10;101013.00;;;;2066397;28;20561;-67
2021/01/15 00:13:29;;;;;;;16.53;11.60;;;;;21.10;101008.00;;;;2068519;28;20264;-67
2021/01/15 00:14:29;;;;;;;16.27;12.90;;;;;21.00;101020.00;;;;2067028;28;20678;-67
2021/01/15 00:15:30;;;;;;;13.93;12.43;;;;;21.10;101009.00;;;;2068820;28;20221;-67
2021/01/15 00:16:31;;;;;;;12.83;11.43;;;;;21.10;101015.00;;;;2067116;28;20234;-67
2021/01/15 00:17:35;;;;;;;12.23;11.02;;;;;21.10;101012.00;;;;2069186;28;20252;-67
2021/01/15 00:18:35;;;;;;;13.75;11.27;;;;;21.10;101016.00;;;;2065868;28;20230;-67
2021/01/15 00:19:35;;;;;;;12.00;10.90;;;;;21.00;101016.00;;;;2070824;28;20610;-67
2021/01/15 00:20:36;;;;;;;12.23;11.03;;;;;21.00;101015.00;;;;2072186;28;20576;-66
2021/01/15 00:21:47;;;;;;;12.20;11.00;;;;;21.00;101012.00;;;;2071261;28;20225;-67
2021/01/15 00:22:48;;;;;;;12.40;11.15;;;;;21.00;101013.00;;;;2071209;28;20227;-67
2021/01/15 00:23:48;;;;;;;12.90;11.60;;;;;21.00;101019.00;;;;2062731;28;20334;-67
2021/01/15 00:24:48;;;;;;;11.90;10.73;;;;;21.00;101019.00;;;;2076003;28;20209;-67
2021/01/15 00:25:49;;;;;;;12.20;11.10;;;;;21.00;101019.00;;;;2071828;28;20213;-67
2021/01/15 00:26:49;;;;;;;13.03;10.57;;;;;21.00;101022.00;;;;2071480;28;20242;-67
2021/01/15 00:27:49;;;;;;;11.87;10.73;;;;;21.00;101025.00;;;;2064108;28;20215;-67
2021/01/15 00:28:50;;;;;;;11.77;10.67;;;;;20.90;101021.00;;;;2071696;28;20218;-67
2021/01/15 00:29:50;;;;;;;11.33;10.23;;;;;20.90;101030.00;;;;2063582;28;20219;-67
2021/01/15 00:30:50;;;;;;;10.73;9.77;;;;;20.90;101034.00;;;;2071027;28;20301;-67
2021/01/15 00:31:51;;;;;;;11.10;10.10;;;;;20.90;101033.00;;;;2071116;28;20214;-67
2021/01/15 00:32:51;;;;;;;11.50;10.50;;;;;20.90;101030.00;;;;2063326;28;20216;-67
2021/01/15 00:33:51;;;;;;;11.13;9.93;;;;;20.90;101028.00;;;;2072015;28;20241;-67
2021/01/15 00:34:52;;;;;;;10.33;9.23;;;;;20.80;101029.00;;;;2063618;28;20218;-67
2021/01/15 00:35:52;;;;;;;10.50;9.50;;;;;20.90;101023.00;;;;2071843;28;20205;-67
2021/01/15 00:36:52;;;;;;;12.37;10.40;;;;;20.90;101036.00;;;;2063737;28;20359;-67
2021/01/15 00:37:53;;;;;;;10.90;9.80;;;;;20.90;101032.00;;;;2063803;28;20218;-67
2021/01/15 00:38:53;;;;;;;11.23;9.90;;;;;20.80;101032.00;;;;2070768;28;20585;-67
2021/01/15 00:39:53;;;;;;;9.30;8.50;;;;;20.80;101032.00;;;;2064717;28;20611;-67
2021/01/15 00:41:01;;;;;;;9.70;8.83;;;;;20.80;101032.00;;;;2071953;28;20927;-67
2021/01/15 00:42:01;;;;;;;9.88;8.98;;;;;20.80;101039.00;;;;2071298;28;20218;-67
2021/01/15 00:43:01;;;;;;;9.37;8.57;;;;;20.80;101034.00;;;;2071275;28;20238;-67
2021/01/15 00:44:02;;;;;;;10.60;9.50;;;;;20.80;101028.00;;;;2070948;28;20214;-67
2021/01/15 00:45:03;;;;;;;9.50;8.60;;;;;20.80;101033.00;;;;2064062;28;20218;-67
2021/01/15 00:46:07;;;;;;;10.73;9.07;;;;;20.70;101030.00;;;;2069803;28;21012;-67
2021/01/15 00:47:08;;;;;;;10.63;9.57;;;;;20.70;101033.00;;;;2064970;28;20466;-67
2021/01/15 00:48:08;;;;;;;8.77;7.97;;;;;20.70;101035.00;;;;2070039;28;20222;-67
2021/01/15 00:49:08;;;;;;;10.87;8.87;;;;;20.70;101030.00;;;;2065988;28;20226;-67
2021/01/15 00:50:10;;;;;;;9.57;8.57;;;;;20.70;101030.00;;;;2069309;28;20590;-67
2021/01/15 00:51:11;;;;;;;9.35;8.55;;;;;20.70;101033.00;;;;2065240;28;20223;-66
2021/01/15 00:52:11;;;;;;;9.37;8.57;;;;;20.70;101030.00;;;;2068867;28;20218;-67
2021/01/15 00:53:11;;;;;;;9.50;8.60;;;;;20.70;101031.00;;;;2066243;28;20270;-67
2021/01/15 00:54:12;;;;;;;8.27;7.57;;;;;20.70;101038.00;;;;2069250;28;20241;-67
2021/01/15 00:55:12;;;;;;;8.33;7.53;;;;;20.60;101034.00;;;;2065808;28;20222;-67
2021/01/15 00:56:16;;;;;;;8.13;7.43;;;;;20.70;101034.00;;;;2069255;28;20226;-67
2021/01/15 00:57:16;;;;;;;8.38;7.60;;;;;20.60;101034.00;;;;2066114;28;20265;-67
2021/01/15 00:58:17;;;;;;;8.30;7.60;;;;;20.40;101038.00;;;;2067911;28;20228;-67
2021/01/15 00:59:17;;;;;;;8.60;7.70;;;;;20.60;101045.00;;;;2071267;28;20222;-67
2021/01/15 01:00:18;;;;;;;8.43;7.60;;;;;20.60;101039.00;;;;2074693;28;20221;-67
2021/01/15 01:01:20;;;;;;;7.73;7.03;;;;;20.60;101042.00;;;;2063758;28;20251;-67
2021/01/15 01:02:20;;;;;;;7.43;6.72;;;;;20.60;101031.00;;;;2075010;28;20704;-67
2021/01/15 01:03:20;;;;;;;7.70;7.03;;;;;20.60;101030.00;;;;2075313;28;20226;-67
2021/01/15 01:04:21;;;;;;;8.40;7.60;;;;;20.60;101044.00;;;;2063089;28;20226;-67
2021/01/15 01:05:21;;;;;;;8.00;7.20;;;;;20.60;101038.00;;;;2066485;28;20223;-67
2021/01/15 01:06:22;;;;;;;7.90;7.10;;;;;20.60;101041.00;;;;2063523;28;20772;-67
2021/01/15 01:07:22;;;;;;;7.17;6.53;;;;;20.50;101037.00;;;;2067733;28;20210;-67
2021/01/15 01:08:23;;;;;;;7.67;6.97;;;;;20.60;101044.00;;;;2067160;28;20709;-67
2021/01/15 01:09:24;;;;;;;8.33;7.53;;;;;20.50;101037.00;;;;2067156;28;20775;-67
2021/01/15 01:10:24;;;;;;;7.30;6.70;;;;;20.50;101037.00;;;;2072318;28;20664;-67
2021/01/15 01:11:25;;;;;;;7.40;6.70;;;;;20.50;101036.00;;;;2071857;28;20214;-67
2021/01/15 01:12:25;;;;;;;7.67;6.90;;;;;20.50;101041.00;;;;2062921;28;20207;-67
2021/01/15 01:13:25;;;;;;;7.63;6.93;;;;;20.50;101064.00;;;;2062866;28;21068;-67
2021/01/15 01:14:26;;;;;;;6.80;6.23;;;;;20.50;101045.00;;;;2067488;28;20582;-67
2021/01/15 01:15:26;;;;;;;7.27;6.57;;;;;20.50;101043.00;;;;2067674;28;20690;-67
2021/01/15 01:16:26;;;;;;;6.20;5.60;;;;;20.50;101047.00;;;;2067351;28;20230;-67
2021/01/15 01:17:27;;;;;;;7.30;6.60;;;;;20.50;101045.00;;;;2067619;28;20225;-67
2021/01/15 01:18:27;;;;;;;6.70;6.10;;;;;20.50;101045.00;;;;2066600;28;20243;-67
2021/01/15 01:19:27;;;;;;;6.50;5.90;;;;;20.50;101050.00;;;;2068383;28;22053;-67
2021/01/15 01:20:28;;;;;;;6.73;6.00;;;;;20.40;101043.00;;;;2067233;28;20216;-67
2021/01/15 01:21:28;;;;;;;8.30;6.90;;;;;20.40;101051.00;;;;2068314;28;20240;-67
2021/01/15 01:22:28;;;;;;;6.33;5.73;;;;;20.40;101059.00;;;;2067066;28;20226;-67
2021/01/15 01:23:29;;;;;;;7.33;6.07;;;;;20.40;101051.00;;;;2068381;28;20673;-67
2021/01/15 01:24:29;;;;;;;6.53;5.93;;;;;20.50;101054.00;;;;2066571;28;20272;-66
2021/01/15 01:25:29;;;;;;;6.80;6.10;;;;;20.40;101060.00;;;;2068193;28;20218;-67
2021/01/15 01:26:30;;;;;;;5.90;5.40;;;;;20.40;101050.00;;;;2066629;28;20219;-67
2021/01/15 01:27:30;;;;;;;6.80;6.27;;;;;20.40;101062.00;;;;2068418;28;20309;-67
2021/01/15 01:28:30;;;;;;;6.20;5.60;;;;;20.40;101065.00;;;;2066746;28;20273;-67
2021/01/15 01:29:31;;;;;;;6.13;5.53;;;;;20.40;101063.00;;;;2068695;28;20744;-67
2021/01/15 01:30:31;;;;;;;6.30;5.70;;;;;20.40;101068.00;;;;2066702;28;20229;-67
2021/01/15 01:31:31;;;;;;;6.90;6.30;;;;;20.40;101066.00;;;;2068523;28;20570;-67
2021/01/15 01:32:32;;;;;;;6.53;5.93;;;;;20.40;101072.00;;;;2066658;28;20598;-67
2021/01/15 01:33:32;;;;;;;6.30;5.73;;;;;20.40;101077.00;;;;2068861;28;20659;-67
2021/01/15 01:34:32;;;;;;;6.30;5.80;;;;;20.40;101072.00;;;;2065421;28;20586;-67
2021/01/15 01:35:33;;;;;;;6.40;5.87;;;;;20.40;101068.00;;;;2068750;28;20779;-67
2021/01/15 01:36:33;;;;;;;5.97;5.47;;;;;20.30;101066.00;;;;2066295;28;20214;-67
2021/01/15 01:37:33;;;;;;;5.97;5.37;;;;;20.30;101072.00;;;;2068847;28;20218;-67
2021/01/15 01:38:34;;;;;;;6.77;6.07;;;;;20.30;101080.00;;;;2065625;28;20379;-67
2021/01/15 01:39:34;;;;;;;6.37;5.87;;;;;20.30;101070.00;;;;2068401;28;20249;-67
2021/01/15 01:40:35;;;;;;;5.67;5.17;;;;;20.30;101071.00;;;;2069943;28;20771;-67
2021/01/15 01:41:35;;;;;;;5.93;5.30;;;;;20.30;101077.00;;;;2071269;28;20225;-67
2021/01/15 01:42:35;;;;;;;5.60;5.10;;;;;20.30;101075.00;;;;2071616;28;20785;-67
2021/01/15 01:43:36;;;;;;;6.00;5.50;;;;;20.30;101080.00;;;;2071690;28;20221;-67
2021/01/15 01:44:36;;;;;;;5.40;4.90;;;;;20.30;101075.00;;;;2066565;28;20218;-67
2021/01/15 01:45:37;;;;;;;5.97;5.47;;;;;20.30;101080.00;;;;2068051;28;20588;-67
2021/01/15 01:46:37;;;;;;;6.27;5.70;;;;;20.30;101081.00;;;;2071649;28;21710;-67
2021/01/15 01:47:37;;;;;;;5.97;5.47;;;;;20.30;101085.00;;;;2071392;28;20274;-67
2021/01/15 01:48:38;;;;;;;5.63;5.13;;;;;20.30;101083.00;;;;2070952;28;20213;-67
2021/01/15 01:49:38;;;;;;;6.03;5.53;;;;;20.30;101099.00;;;;2056440;28;20306;-67
2021/01/15 01:50:41;;;;;;;6.53;5.93;;;;;20.30;101078.00;;;;2060625;28;20710;-67
2021/01/15 01:51:42;;;;;;;5.88;5.38;;;;;20.30;101089.00;;;;2061240;28;20350;-67
2021/01/15 01:52:42;;;;;;;5.77;5.27;;;;;20.30;101099.00;;;;2064720;28;20220;-67
2021/01/15 01:53:42;;;;;;;5.50;5.10;;;;;20.30;101076.00;;;;2077646;28;20265;-67
2021/01/15 01:54:42;;;;;;;5.63;5.17;;;;;20.20;101079.00;;;;2054446;28;20219;-67
2021/01/15 01:55:43;;;;;;;5.30;4.80;;;;;20.20;101084.00;;;;2062828;28;20281;-67
2021/01/15 01:56:43;;;;;;;5.03;4.63;;;;;20.30;101081.00;;;;2069602;28;20236;-67
2021/01/15 01:57:44;;;;;;;5.40;4.90;;;;;20.20;101086.00;;;;2063952;28;20228;-67
2021/01/15 01:58:44;;;;;;;5.50;5.00;;;;;20.20;101094.00;;;;2069784;28;20307;-67
2021/01/15 01:59:44;;;;;;;4.93;4.50;;;;;20.20;101085.00;;;;2055622;28;20227;-67
2021/01/15 02:00:46;;;;;;;5.50;5.10;;;;;20.20;101090.00;;;;2059677;28;20269;-67
2021/01/15 02:01:47;;;;;;;5.63;5.13;;;;;20.20;101086.00;;;;2061966;28;20345;-67
2021/01/15 02:02:47;;;;;;;5.57;5.07;;;;;20.20;101093.00;;;;2069842;28;20689;-66
2021/01/15 02:03:47;;;;;;;6.20;5.70;;;;;20.20;101091.00;;;;2064431;28;20233;-67
2021/01/15 02:04:48;;;;;;;5.27;4.80;;;;;20.20;101095.00;;;;2066998;28;20228;-66
2021/01/15 02:05:49;;;;;;;5.50;5.00;;;;;20.20;101094.00;;;;2070778;28;20214;-67
2021/01/15 02:06:49;;;;;;;5.20;4.80;;;;;20.20;101104.00;;;;2069810;28;20462;-66
2021/01/15 02:07:50;;;;;;;5.53;5.03;;;;;20.20;101095.00;;;;2062941;28;20211;-67
2021/01/15 02:08:50;;;;;;;5.40;5.00;;;;;20.20;101096.00;;;;2069968;28;20712;-67
2021/01/15 02:10:02;;;;;;;5.70;5.17;;;;;20.20;101099.00;;;;2054402;28;20224;-67
2021/01/15 02:11:16;;;;;;;5.57;5.05;;;;;20.20;101104.00;;;;2056702;28;20576;-67
2021/01/15 02:12:23;;;;;;;5.68;5.18;;;;;20.10;101109.00;;;;2060813;28;21001;-67
2021/01/15 02:13:31;;;;;;;5.40;4.90;;;;;20.10;101108.00;;;;2059113;28;20242;-67
2021/01/15 02:14:44;;;;;;;5.18;4.78;;;;;20.10;101109.00;;;;2059090;28;20217;-67
2021/01/15 02:15:47;;;;;;;5.70;5.20;;;;;20.10;101111.00;;;;2064526;28;20218;-67
2021/01/15 02:16:49;;;;;;;5.97;5.47;;;;;20.10;101115.00;;;;2067398;28;20217;-67
2021/01/15 02:17:55;;;;;;;5.68;5.15;;;;;20.10;101118.00;;;;2062344;28;20218;-67
2021/01/15 02:19:38;;;;;;;5.30;4.90;;;;;20.10;101120.00;;;;2055400;28;20598;-67
2021/01/15 02:21:00;;;;;;;5.72;5.22;;;;;20.10;101125.00;;;;2059833;28;20229;-67
2021/01/15 02:22:25;;;;;;;5.20;4.80;;;;;20.10;101129.00;;;;2061767;28;20575;-67
2021/01/15 02:23:35;;;;;;;5.80;5.30;;;;;20.10;101126.00;;;;2065514;28;20223;-67
2021/01/15 02:24:35;;;;;;;5.70;5.20;;;;;20.10;101119.00;;;;2066611;28;20320;-67
2021/01/15 02:26:05;;;;;;;5.60;5.10;;;;;20.10;101122.00;;;;2064411;28;20238;-67
2021/01/15 02:27:51;;;;;;;5.93;5.32;;;;;20.10;101127.00;;;;2064122;28;20229;-67
2021/01/15 02:29:13;;;;;;;5.60;5.10;;;;;20.00;101130.00;;;;2063019;28;20223;-66
2021/01/15 02:30:33;;;;;;;5.50;5.00;;;;;20.00;101123.00;;;;2064613;28;20694;-67
2021/01/15 02:31:45;;;;;;;5.75;5.22;;;;;20.00;101130.00;;;;2055964;28;20215;-67
2021/01/15 02:33:18;;;;;;;5.53;5.10;;;;;19.90;101133.00;;;;2064836;28;20224;-67
2021/01/15 02:34:44;;;;;;;5.55;5.05;;;;;20.00;101141.00;;;;2065705;28;20255;-67
2021/01/15 02:35:59;;;;;;;6.05;5.43;;;;;20.00;101132.00;;;;2063448;28;20710;-67
2021/01/15 02:37:20;;;;;;;5.85;5.32;;;;;20.00;101134.00;;;;2063805;28;20208;-67
2021/01/15 02:38:24;;;;;;;5.18;4.78;;;;;20.00;101141.00;;;;2066816;28;20233;-67
2021/01/15 02:39:49;;;;;;;5.53;5.05;;;;;20.00;101135.00;;;;2062613;28;20811;-67
2021/01/15 02:40:55;;;;;;;6.00;5.60;;;;;19.90;101135.00;;;;2074605;28;20210;-67
2021/01/15 02:41:55;;;;;;;5.53;4.95;;;;;19.90;101119.00;;;;2070070;28;20343;-67
2021/01/15 02:42:56;;;;;;;6.27;5.77;;;;;20.00;101135.00;;;;2062018;28;20210;-67
2021/01/15 02:44:01;;;;;;;6.20;5.57;;;;;19.90;101132.00;;;;2054552;28;20230;-67
2021/01/15 02:45:09;;;;;;;5.93;5.40;;;;;20.00;101134.00;;;;2064052;28;20240;-67
2021/01/15 02:46:09;;;;;;;5.45;4.95;;;;;20.00;101135.00;;;;2068066;28;20220;-67
2021/01/15 02:47:17;;;;;;;5.87;5.37;;;;;19.90;101143.00;;;;2066971;28;20208;-67
2021/01/15 02:48:17;;;;;;;5.82;5.32;;;;;19.90;101143.00;;;;2059618;28;20223;-67
2021/01/15 02:49:17;;;;;;;4.87;4.47;;;;;19.90;101140.00;;;;2065657;28;20300;-67
2021/01/15 02:50:27;;;;;;;5.50;5.10;;;;;19.90;101141.00;;;;2066465;28;20210;-67
2021/01/15 02:51:29;;;;;;;5.65;5.10;;;;;19.90;101144.00;;;;2065583;28;20630;-67
2021/01/15 02:52:29;;;;;;;5.65;5.15;;;;;19.90;101148.00;;;;2056978;28;20211;-67
2021/01/15 02:53:29;;;;;;;5.80;5.30;;;;;19.90;101144.00;;;;2053656;28;20233;-67
2021/01/15 02:54:30;;;;;;;6.10;5.23;;;;;19.90;101147.00;;;;2074731;28;20204;-67
2021/01/15 02:55:31;;;;;;;6.23;5.73;;;;;19.90;101145.00;;;;2069575;28;20221;-67
2021/01/15 02:56:31;;;;;;;5.50;5.00;;;;;19.90;101150.00;;;;2067104;28;20519;-67
2021/01/15 02:57:31;;;;;;;5.40;5.00;;;;;19.90;101150.00;;;;2065297;28;20217;-67
2021/01/15 02:58:32;;;;;;;6.10;5.50;;;;;19.90;101153.00;;;;2067426;28;20217;-67
2021/01/15 02:59:32;;;;;;;5.60;5.10;;;;;19.90;101148.00;;;;2065135;28;20218;-67
2021/01/15 03:00:32;;;;;;;5.23;4.83;;;;;19.90;101149.00;;;;2067392;28;20220;-67
2021/01/15 03:01:50;;;;;;;5.97;5.47;;;;;19.80;101152.00;;;;2064966;28;20234;-67
2021/01/15 03:03:03;;;;;;;5.85;5.45;;;;;19.80;101153.00;;;;2053592;28;20294;-67
2021/01/15 03:04:12;;;;;;;5.70;5.20;;;;;19.80;101148.00;;;;2056857;28;20219;-67
2021/01/15 03:05:20;;;;;;;6.05;5.55;;;;;19.80;101163.00;;;;2066672;28;20216;-67
2021/01/15 03:06:28;;;;;;;6.18;5.60;;;;;19.80;101161.00;;;;2061392;28;20301;-67
2021/01/15 03:07:28;;;;;;;6.43;5.82;;;;;19.80;101156.00;;;;2052931;28;20724;-69
2021/01/15 03:08:29;;;;;;;5.80;5.40;;;;;19.80;101161.00;;;;2054847;28;20230;-67
2021/01/15 03:09:35;;;;;;;6.67;6.07;;;;;19.80;101163.00;;;;2067603;28;20246;-67
2021/01/15 03:10:35;;;;;;;6.45;5.93;;;;;19.80;101169.00;;;;2054808;28;20233;-67
2021/01/15 03:11:37;;;;;;;6.10;5.60;;;;;19.80;101169.00;;;;2046206;28;20690;-67
2021/01/15 03:12:40;;;;;;;6.60;5.95;;;;;19.80;101169.00;;;;2054151;28;20714;-67
2021/01/15 03:13:40;;;;;;;6.35;5.85;;;;;19.80;101166.00;;;;2068468;28;20215;-68
2021/01/15 03:14:40;;;;;;;7.00;6.40;;;;;19.80;101164.00;;;;2061492;28;20206;-66
2021/01/15 03:15:41;;;;;;;6.40;5.90;;;;;19.80;101169.00;;;;2062143;28;20214;-67
2021/01/15 03:16:41;;;;;;;5.97;5.47;;;;;19.80;101171.00;;;;2061882;28;20206;-67
2021/01/15 03:17:47;;;;;;;6.07;5.57;;;;;19.80;101173.00;;;;2069875;28;20257;-67
2021/01/15 03:18:47;;;;;;;7.30;6.60;;;;;19.80;101174.00;;;;2046872;28;20273;-67
2021/01/15 03:19:48;;;;;;;5.97;5.47;;;;;19.80;101168.00;;;;2053548;28;20370;-67
2021/01/15 03:20:48;;;;;;;6.20;5.60;;;;;19.80;101173.00;;;;2061509;28;20240;-67
2021/01/15 03:21:50;;;;;;;6.37;5.57;;;;;19.80;101168.00;;;;2046122;28;20219;-67
2021/01/15 03:22:51;;;;;;;6.90;6.32;;;;;19.70;101168.00;;;;2062868;28;20218;-67
2021/01/15 03:23:51;;;;;;;6.73;6.13;;;;;19.70;101177.00;;;;2069745;28;20805;-67
2021/01/15 03:24:55;;;;;;;6.90;6.30;;;;;19.70;101177.00;;;;2071197;28;20302;-67
2021/01/15 03:25:56;;;;;;;7.45;6.85;;;;;19.70;101176.00;;;;2067839;28;20222;-66
2021/01/15 03:26:56;;;;;;;6.50;6.00;;;;;19.70;101182.00;;;;2078273;28;20213;-67
2021/01/15 03:27:57;;;;;;;5.70;5.30;;;;;19.70;101179.00;;;;2069726;28;20326;-67
2021/01/15 03:28:57;;;;;;;6.97;6.33;;;;;19.70;101189.00;;;;2054923;28;20232;-66
2021/01/15 03:29:57;;;;;;;6.33;5.83;;;;;19.70;101180.00;;;;2067488;28;20228;-66
2021/01/15 03:30:58;;;;;;;7.00;6.40;;;;;19.70;101180.00;;;;2061821;28;20805;-67
2021/01/15 03:31:58;;;;;;;7.10;6.50;;;;;19.70;101185.00;;;;2068580;28;20843;-66
2021/01/15 03:33:00;;;;;;;7.47;6.77;;;;;19.70;101190.00;;;;2062913;28;20226;-67
2021/01/15 03:34:00;;;;;;;7.40;6.80;;;;;19.70;101184.00;;;;2061449;28;20663;-66
2021/01/15 03:35:00;;;;;;;6.40;5.90;;;;;19.70;101191.00;;;;2062592;28;20215;-66
2021/01/15 03:36:01;;;;;;;7.23;6.63;;;;;19.70;101188.00;;;;2069206;28;20221;-67
2021/01/15 03:37:01;;;;;;;7.13;6.43;;;;;19.70;101193.00;;;;2062923;28;20222;-66
2021/01/15 03:38:05;;;;;;;7.17;6.60;;;;;19.70;101191.00;;;;2069088;28;20224;-66
2021/01/15 03:39:05;;;;;;;7.18;6.35;;;;;19.70;101205.00;;;;2064016;28;20276;-66
2021/01/15 03:40:06;;;;;;;6.97;6.40;;;;;19.70;101190.00;;;;2068282;28;20229;-66
2021/01/15 03:41:07;;;;;;;7.07;6.43;;;;;19.60;101194.00;;;;2063960;28;20711;-66
2021/01/15 03:42:07;;;;;;;7.00;6.40;;;;;19.70;101194.00;;;;2068506;28;20465;-66
2021/01/15 03:43:14;;;;;;;7.10;6.20;;;;;19.70;101203.00;;;;2065831;28;20224;-66
2021/01/15 03:44:14;;;;;;;6.53;6.03;;;;;19.70;101195.00;;;;2069911;28;20332;-66
2021/01/15 03:45:15;;;;;;;6.60;5.97;;;;;19.70;101193.00;;;;2069604;28;20216;-66
2021/01/15 03:46:18;;;;;;;7.17;6.47;;;;;19.60;101175.00;;;;2069907;28;20236;-66
2021/01/15 03:47:18;;;;;;;7.00;6.40;;;;;19.70;101189.00;;;;2058271;28;20225;-62
2021/01/15 03:48:21;;;;;;;7.37;6.67;;;;;19.70;101195.00;;;;2056150;28;20222;-62
2021/01/15 03:49:21;;;;;;;7.32;6.70;;;;;19.60;101198.00;;;;2061450;28;20331;-62
2021/01/15 03:50:21;;;;;;;7.50;6.90;;;;;19.60;101209.00;;;;2054007;28;20225;-62
2021/01/15 03:51:22;;;;;;;7.40;6.80;;;;;19.60;101200.00;;;;2069716;28;20217;-62
2021/01/15 03:52:22;;;;;;;7.73;7.03;;;;;19.60;101200.00;;;;2066292;28;20227;-62
2021/01/15 03:53:23;;;;;;;6.80;6.30;;;;;19.60;101203.00;;;;2065449;28;20215;-62
2021/01/15 03:54:23;;;;;;;7.10;6.50;;;;;19.60;101201.00;;;;2065567;28;20695;-67
2021/01/15 03:55:23;;;;;;;6.70;6.20;;;;;19.60;101207.00;;;;2066379;28;20287;-66
2021/01/15 03:56:24;;;;;;;7.53;6.93;;;;;19.60;101206.00;;;;2066621;28;20218;-66
2021/01/15 03:57:24;;;;;;;8.50;7.80;;;;;19.60;101207.00;;;;2066851;28;20217;-66
2021/01/15 03:58:24;;;;;;;7.10;6.50;;;;;19.60;101211.00;;;;2066434;28;20221;-66
2021/01/15 03:59:25;;;;;;;7.20;6.60;;;;;19.60;101213.00;;;;2066713;28;20343;-67
2021/01/15 04:00:25;;;;;;;8.00;7.30;;;;;19.60;101212.00;;;;2065586;28;20283;-66
2021/01/15 04:01:26;;;;;;;7.80;7.20;;;;;19.50;101218.00;;;;2066540;28;20221;-67
2021/01/15 04:02:26;;;;;;;7.50;6.80;;;;;19.50;101221.00;;;;2065794;28;20225;-66
2021/01/15 04:03:26;;;;;;;7.27;6.57;;;;;19.60;101226.00;;;;2061531;28;20263;-66
2021/01/15 04:04:26;;;;;;;7.57;6.70;;;;;19.60;101224.00;;;;2066433;28;20279;-66
2021/01/15 04:05:27;;;;;;;7.60;6.90;;;;;19.50;101222.00;;;;2062200;28;20226;-66
2021/01/15 04:06:27;;;;;;;7.43;6.73;;;;;19.60;101223.00;;;;2066763;28;20254;-66
2021/01/15 04:07:29;;;;;;;8.07;7.27;;;;;19.50;101219.00;;;;2065938;28;20232;-66
2021/01/15 04:08:29;;;;;;;6.93;6.35;;;;;19.50;101224.00;;;;2066881;28;20252;-67
2021/01/15 04:09:29;;;;;;;8.80;7.10;;;;;19.50;101220.00;;;;2065368;28;20226;-66
2021/01/15 04:10:30;;;;;;;6.87;6.27;;;;;19.60;101228.00;;;;2063177;28;20219;-66
2021/01/15 04:11:30;;;;;;;6.70;6.20;;;;;19.50;101228.00;;;;2063296;28;20298;-65
2021/01/15 04:12:30;;;;;;;7.40;6.80;;;;;19.50;101233.00;;;;2067420;28;20244;-66
2021/01/15 04:13:31;;;;;;;7.63;6.90;;;;;19.50;101233.00;;;;2062580;28;20208;-66
2021/01/15 04:14:31;;;;;;;7.10;6.60;;;;;19.50;101236.00;;;;2065229;28;20214;-66
2021/01/15 04:15:31;;;;;;;6.80;6.30;;;;;19.50;101235.00;;;;2062886;28;20297;-66
2021/01/15 04:16:32;;;;;;;7.50;6.90;;;;;19.50;101234.00;;;;2067327;28;20728;-62
2021/01/15 04:17:32;;;;;;;7.57;6.97;;;;;19.50;101236.00;;;;2065341;28;20718;-62
2021/01/15 04:18:33;;;;;;;7.23;6.63;;;;;19.50;101239.00;;;;2069341;28;21000;-62
2021/01/15 04:19:33;;;;;;;7.50;6.80;;;;;19.50;101244.00;;;;2066805;28;20562;-62
2021/01/15 04:20:33;;;;;;;7.27;6.67;;;;;19.50;101244.00;;;;2070504;28;20614;-65
2021/01/15 04:21:34;;;;;;;7.27;6.77;;;;;19.50;101243.00;;;;2070947;28;20213;-66
2021/01/15 04:22:38;;;;;;;7.57;6.97;;;;;19.50;101245.00;;;;2072346;28;20217;-65
2021/01/15 04:23:38;;;;;;;7.60;7.00;;;;;19.50;101246.00;;;;2072635;28;20224;-66
2021/01/15 04:24:38;;;;;;;7.73;7.13;;;;;19.50;101242.00;;;;2072274;28;20271;-65
2021/01/15 04:25:39;;;;;;;7.57;6.87;;;;;19.50;101239.00;;;;2066081;28;20208;-62
2021/01/15 04:26:39;;;;;;;7.90;7.30;;;;;19.50;101252.00;;;;2070283;28;20293;-62
2021/01/15 04:27:40;;;;;;;8.60;7.80;;;;;19.50;101248.00;;;;2065575;28;20206;-62
2021/01/15 04:28:40;;;;;;;6.90;6.27;;;;;19.50;101243.00;;;;2055490;28;20209;-62
2021/01/15 04:29:40;;;;;;;7.90;7.20;;;;;19.50;101245.00;;;;2061226;28;20666;-63
2021/01/15 04:30:41;;;;;;;7.47;6.87;;;;;19.40;101253.00;;;;2063416;28;20301;-62
2021/01/15 04:31:41;;;;;;;7.53;6.93;;;;;19.40;101242.00;;;;2063532;28;20211;-62
2021/01/15 04:32:45;;;;;;;8.20;7.60;;;;;19.40;101253.00;;;;2069910;28;20212;-62
2021/01/15 04:33:45;;;;;;;7.97;7.28;;;;;19.40;101239.00;;;;2064586;28;20210;-62
2021/01/15 04:34:46;;;;;;;7.73;7.13;;;;;19.40;101249.00;;;;2054920;28;20291;-62
2021/01/15 04:35:46;;;;;;;7.90;7.20;;;;;19.40;101253.00;;;;2061091;28;20299;-62
2021/01/15 04:36:46;;;;;;;7.07;6.57;;;;;19.40;101240.00;;;;2063429;28;20207;-62
2021/01/15 04:37:47;;;;;;;7.20;6.60;;;;;19.40;101252.00;;;;2068885;28;20222;-62
2021/01/15 04:38:48;;;;;;;7.60;7.00;;;;;19.40;101248.00;;;;2077283;28;20210;-62
2021/01/15 04:39:48;;;;;;;8.20;7.60;;;;;19.40;101254.00;;;;2063876;28;20263;-62
2021/01/15 04:40:48;;;;;;;7.20;6.70;;;;;19.40;101252.00;;;;2070763;28;20216;-62
2021/01/15 04:41:49;;;;;;;7.60;7.00;;;;;19.40;101247.00;;;;2064080;28;20209;-62
2021/01/15 04:42:49;;;;;;;8.20;7.50;;;;;19.40;101249.00;;;;2047873;28;20366;-62
2021/01/15 04:43:55;;;;;;;7.73;7.13;;;;;19.40;101249.00;;;;2062532;28;20226;-62
2021/01/15 04:44:56;;;;;;;7.72;7.07;;;;;19.40;101252.00;;;;2063153;28;20697;-62
2021/01/15 04:45:56;;;;;;;8.97;8.17;;;;;19.40;101251.00;;;;2063045;28;20221;-62
2021/01/15 04:46:56;;;;;;;8.37;7.77;;;;;19.40;101247.00;;;;2055124;28;20222;-62
2021/01/15 04:47:57;;;;;;;8.80;8.00;;;;;19.40;101245.00;;;;2063314;28;20298;-62
2021/01/15 04:48:57;;;;;;;7.60;7.00;;;;;19.40;101246.00;;;;2066148;28;20215;-62
2021/01/15 04:49:58;;;;;;;8.57;7.80;;;;;19.30;101253.00;;;;2059798;28;20233;-62
2021/01/15 04:50:58;;;;;;;8.27;7.67;;;;;19.40;101252.00;;;;2060508;28;20218;-62
2021/01/15 04:52:01;;;;;;;7.47;6.87;;;;;19.40;101259.00;;;;2071277;28;20706;-62
2021/01/15 04:53:04;;;;;;;7.85;7.15;;;;;19.40;101250.00;;;;2055096;28;20298;-62
2021/01/15 04:54:06;;;;;;;7.95;7.20;;;;;19.40;101255.00;;;;2052346;28;20212;-62
2021/01/15 04:55:07;;;;;;;7.85;7.20;;;;;19.40;101257.00;;;;2060256;28;20245;-62
2021/01/15 04:56:07;;;;;;;8.02;7.35;;;;;19.40;101264.00;;;;2064181;28;20228;-62
2021/01/15 04:57:10;;;;;;;8.70;8.00;;;;;19.40;101265.00;;;;2054695;28;20297;-62
2021/01/15 04:58:11;;;;;;;8.55;7.85;;;;;19.40;101269.00;;;;2046922;28;20226;-62
2021/01/15 04:59:11;;;;;;;7.73;7.13;;;;;19.40;101268.00;;;;2064038;28;20228;-62
2021/01/15 05:00:12;;;;;;;8.47;7.57;;;;;19.40;101262.00;;;;2069095;28;20227;-62
2021/01/15 05:01:12;;;;;;;8.57;7.87;;;;;19.40;101259.00;;;;2059093;28;20220;-62
2021/01/15 05:02:16;;;;;;;8.70;7.93;;;;;19.30;101265.00;;;;2054758;28;20227;-62
2021/01/15 05:03:17;;;;;;;7.85;7.22;;;;;19.30;101259.00;;;;2055418;28;20230;-62
2021/01/15 05:04:18;;;;;;;8.10;7.50;;;;;19.30;101277.00;;;;2067518;28;20216;-62
2021/01/15 05:05:22;;;;;;;8.30;7.70;;;;;19.30;101257.00;;;;2058643;28;20771;-62
2021/01/15 05:06:22;;;;;;;8.23;7.53;;;;;19.40;101261.00;;;;2066712;28;20225;-63
2021/01/15 05:07:23;;;;;;;7.93;7.33;;;;;19.30;101263.00;;;;2066762;28;20301;-62
2021/01/15 05:08:28;;;;;;;8.75;8.05;;;;;19.30;101258.00;;;;2046400;28;20225;-62